createdAt,value
2018-05-31T00:02:36.270Z,46.7
2018-05-31T00:07:34.065Z,46.7
2018-05-31T00:12:31.825Z,46.6
2018-05-31T00:17:29.116Z,46.6
2018-05-31T00:22:26.934Z,46.6
2018-05-31T00:27:24.774Z,46.6
2018-05-31T00:32:22.109Z,46.6
2018-05-31T00:37:19.857Z,46.6
2018-05-31T00:42:17.667Z,46.7
2018-05-31T00:47:15.426Z,46.7
2018-05-31T00:52:12.765Z,46.7
2018-05-31T00:57:11.120Z,46.6
2018-05-31T01:02:08.962Z,46.5
2018-05-31T01:07:06.794Z,46.5
2018-05-31T01:12:04.556Z,46.6
2018-05-31T01:17:02.116Z,46.6
2018-05-31T01:21:59.763Z,46.6
2018-05-31T01:26:57.418Z,46.7
2018-05-31T01:31:55.739Z,46.6
2018-05-31T01:36:53.880Z,46.6
2018-05-31T01:41:51.743Z,46.5
2018-05-31T01:46:49.495Z,46.5
2018-05-31T01:51:47.021Z,46.5
2018-05-31T01:56:44.583Z,46.5
2018-05-31T02:01:42.148Z,46.6
2018-05-31T02:06:39.861Z,46.6
2018-05-31T02:11:37.634Z,46.7
2018-05-31T02:16:35.273Z,46.6
2018-05-31T02:21:32.941Z,46.7
2018-05-31T02:26:30.538Z,46.6
2018-05-31T02:31:28.515Z,46.6
2018-05-31T02:36:25.906Z,46.6
2018-05-31T02:41:23.713Z,46.6
2018-05-31T02:46:21.559Z,46.6
2018-05-31T02:51:19.309Z,46.7
2018-05-31T02:56:17.136Z,46.7
2018-05-31T03:01:14.627Z,46.7
2018-05-31T03:06:12.182Z,46.6
2018-05-31T03:11:09.635Z,46.6
2018-05-31T03:16:07.406Z,46.6
2018-05-31T03:21:05.287Z,46.6
2018-05-31T03:26:02.880Z,46.6
2018-05-31T03:31:00.455Z,46.5
2018-05-31T03:35:58.216Z,46.5
2018-05-31T03:40:55.890Z,46.5
2018-05-31T03:45:53.511Z,46.5
2018-05-31T03:50:51.393Z,46.5
2018-05-31T03:55:49.530Z,46.5
2018-05-31T04:00:47.373Z,46.5
2018-05-31T04:05:44.970Z,46.6
2018-05-31T04:10:42.677Z,46.6
2018-05-31T04:15:40.326Z,46.6
2018-05-31T04:20:38.402Z,46.7
2018-05-31T04:25:36.156Z,46.7
2018-05-31T04:30:33.966Z,46.7
2018-05-31T04:35:31.762Z,46.7
2018-05-31T04:40:29.449Z,46.8
2018-05-31T04:45:27.170Z,46.8
2018-05-31T04:50:24.948Z,46.9
2018-05-31T04:55:22.242Z,46.9
2018-05-31T05:00:19.961Z,47
2018-05-31T05:05:17.772Z,47
2018-05-31T05:10:15.435Z,47.1
2018-05-31T05:15:12.908Z,47.1
2018-05-31T05:20:10.515Z,47.2
2018-05-31T05:25:08.153Z,47.3
2018-05-31T05:30:05.450Z,47.3
2018-05-31T05:35:03.362Z,47.4
2018-05-31T05:40:01.102Z,47.5
2018-05-31T05:44:59.296Z,47.5
2018-05-31T05:49:57.273Z,47.6
2018-05-31T05:54:55.194Z,47.6
2018-05-31T05:59:52.946Z,47.7
2018-05-31T06:04:50.516Z,47.8
2018-05-31T06:09:48.951Z,47.8
2018-05-31T06:14:46.726Z,47.9
2018-05-31T06:19:44.238Z,47.9
2018-05-31T06:24:41.946Z,48
2018-05-31T06:29:39.615Z,48
2018-05-31T06:34:37.445Z,48.1
2018-05-31T06:39:35.239Z,48.1
2018-05-31T06:44:33.098Z,48.2
2018-05-31T06:49:30.822Z,48.3
2018-05-31T06:54:28.695Z,48.3
2018-05-31T06:59:26.399Z,48.3
2018-05-31T07:04:24.068Z,48.4
2018-05-31T07:09:21.847Z,48.4
2018-05-31T07:14:19.681Z,48.5
2018-05-31T07:19:17.151Z,48.5
2018-05-31T07:24:14.915Z,48.6
2018-05-31T07:29:12.739Z,48.6
2018-05-31T07:34:10.454Z,48.7
2018-05-31T07:39:08.101Z,48.7
2018-05-31T07:44:05.464Z,48.8
2018-05-31T07:49:03.430Z,48.8
2018-05-31T07:54:01.200Z,48.8
2018-05-31T07:58:58.841Z,48.9
2018-05-31T08:03:56.720Z,48.9
2018-05-31T08:08:54.406Z,48.9
2018-05-31T08:13:51.544Z,49
2018-05-31T08:18:49.320Z,49.1
2018-05-31T08:23:47.264Z,49.1
2018-05-31T08:28:44.901Z,49.1
2018-05-31T08:33:42.678Z,49.1
2018-05-31T08:38:40.228Z,49.1
2018-05-31T08:43:38.081Z,49.2
2018-05-31T08:48:35.449Z,49.2
2018-05-31T08:53:33.130Z,49.2
2018-05-31T08:58:30.730Z,49.3
2018-05-31T09:03:28.390Z,49.3
2018-05-31T09:08:26.153Z,49.3
2018-05-31T09:13:23.986Z,49.3
2018-05-31T09:18:21.586Z,49.4
2018-05-31T09:23:19.545Z,49.4
2018-05-31T09:28:16.976Z,49.3
2018-05-31T09:33:14.776Z,49.4
2018-05-31T09:38:12.434Z,49.4
2018-05-31T09:43:10.146Z,49.4
2018-05-31T09:48:07.860Z,49.4
2018-05-31T09:53:05.713Z,49.5
2018-05-31T09:58:03.082Z,49.5
2018-05-31T10:03:00.659Z,49.5
2018-05-31T10:07:58.634Z,49.5
2018-05-31T10:12:56.380Z,49.5
2018-05-31T10:17:53.767Z,49.4
2018-05-31T10:22:51.573Z,49.4
2018-05-31T10:27:49.330Z,49.4
2018-05-31T10:32:47.340Z,49.5
2018-05-31T10:37:45.215Z,49.5
2018-05-31T10:42:42.997Z,49.5
2018-05-31T10:47:40.669Z,49.5
2018-05-31T10:52:38.551Z,49.5
2018-05-31T10:57:35.924Z,49.5
2018-05-31T11:02:33.795Z,49.5
2018-05-31T11:07:31.723Z,49.5
2018-05-31T11:12:29.552Z,49.4
2018-05-31T11:17:27.303Z,49.5
2018-05-31T11:22:25.007Z,49.5
2018-05-31T11:27:22.694Z,49.5
2018-05-31T11:32:20.534Z,49.5
2018-05-31T11:37:18.171Z,49.5
2018-05-31T11:42:15.903Z,49.5
2018-05-31T11:47:13.821Z,49.5
2018-05-31T11:52:11.591Z,49.5
2018-05-31T11:57:09.156Z,49.5
2018-05-31T12:02:06.978Z,49.5
2018-05-31T12:07:04.684Z,49.5
2018-05-31T12:12:01.856Z,49.6
2018-05-31T12:16:59.465Z,49.5
2018-05-31T12:21:57.388Z,49.3
2018-05-31T12:26:54.917Z,49.4
2018-05-31T12:31:52.692Z,49.4
2018-05-31T12:36:50.610Z,49.4
2018-05-31T12:41:48.127Z,49.4
2018-05-31T12:46:45.882Z,49.3
2018-05-31T12:51:43.800Z,49.3
2018-05-31T12:56:41.795Z,49.3
2018-05-31T13:01:39.683Z,49.3
2018-05-31T13:06:37.479Z,49.3
2018-05-31T13:11:35.254Z,49.3
2018-05-31T13:16:33.184Z,49.3
2018-05-31T13:21:30.996Z,49.4
2018-05-31T13:26:28.843Z,49.3
2018-05-31T13:31:26.736Z,49.2
2018-05-31T13:36:24.595Z,49.2
2018-05-31T13:41:22.182Z,49.2
2018-05-31T13:46:20.257Z,49.1
2018-05-31T13:51:18.159Z,49.1
2018-05-31T13:56:16.104Z,49.1
2018-05-31T14:01:14.003Z,49
2018-05-31T14:06:11.743Z,48.9
2018-05-31T14:11:09.531Z,48.7
2018-05-31T14:16:07.148Z,48.6
2018-05-31T14:21:05.222Z,48.5
2018-05-31T14:26:03.486Z,48.4
2018-05-31T14:31:01.237Z,48.3
2018-05-31T14:35:59.809Z,48.4
2018-05-31T14:40:57.609Z,48.4
2018-05-31T14:45:55.414Z,48.4
2018-05-31T14:50:53.383Z,48.3
2018-05-31T14:55:51.408Z,48.1
2018-05-31T15:00:49.257Z,48
2018-05-31T15:05:46.951Z,47.8
2018-05-31T15:10:44.710Z,47.7
2018-05-31T15:15:42.308Z,47.6
2018-05-31T15:20:40.165Z,47.6
2018-05-31T15:25:38.218Z,47.7
2018-05-31T15:30:36.038Z,47.6
2018-05-31T15:35:34.240Z,47.5
2018-05-31T15:40:31.981Z,47.3
2018-05-31T15:45:29.910Z,47.2
2018-05-31T15:50:27.865Z,47.1
2018-05-31T15:55:25.722Z,47.1
2018-05-31T16:00:22.844Z,46.9
2018-05-31T16:05:20.815Z,47.1
2018-05-31T16:10:18.772Z,47.2
2018-05-31T16:15:16.517Z,47.2
2018-05-31T16:20:14.626Z,47.1
2018-05-31T16:25:12.702Z,47.1
2018-05-31T16:30:10.382Z,47
2018-05-31T16:35:07.727Z,47
2018-05-31T16:40:05.723Z,47
2018-05-31T16:45:03.770Z,47
2018-05-31T16:50:01.930Z,47.1
2018-05-31T16:54:59.670Z,47.1
2018-05-31T16:59:57.725Z,47.1
2018-05-31T17:04:55.894Z,47.1
2018-05-31T17:09:54.590Z,47.2
2018-05-31T17:14:52.617Z,47.2
2018-05-31T17:19:50.468Z,47.3
2018-05-31T17:24:48.695Z,47.3
2018-05-31T17:29:46.554Z,47.4
2018-05-31T17:34:44.559Z,47.4
2018-05-31T17:39:42.646Z,47.3
2018-05-31T17:44:40.739Z,47.3
2018-05-31T17:49:38.444Z,47.3
2018-05-31T17:54:36.249Z,47.3
2018-05-31T17:59:34.164Z,47.3
2018-05-31T18:04:32.183Z,47.4
2018-05-31T18:09:30.188Z,47.4
2018-05-31T18:14:28.119Z,47.5
2018-05-31T18:19:26.042Z,47.4
2018-05-31T18:24:24.020Z,47.2
2018-05-31T18:29:21.759Z,47.2
2018-05-31T18:34:19.260Z,46.9
2018-05-31T18:39:17.155Z,46.8
2018-05-31T18:44:15.000Z,46.9
2018-05-31T18:49:12.846Z,46.9
2018-05-31T18:54:10.502Z,46.9
2018-05-31T18:59:08.379Z,47.2
2018-05-31T19:04:06.181Z,47.2
2018-05-31T19:09:03.703Z,47.1
2018-05-31T19:14:01.520Z,47
2018-05-31T19:18:59.459Z,46.6
2018-05-31T19:23:57.364Z,46.5
2018-05-31T19:28:55.088Z,46.5
2018-05-31T19:33:53.007Z,46.6
2018-05-31T19:38:50.732Z,46.6
2018-05-31T19:43:48.726Z,46.9
2018-05-31T19:48:46.462Z,47
2018-05-31T19:53:43.883Z,47
2018-05-31T19:58:41.825Z,46.6
2018-05-31T20:03:39.705Z,46.4
2018-05-31T20:08:37.428Z,46.4
2018-05-31T20:13:35.481Z,46.4
2018-05-31T20:18:33.455Z,46.3
2018-05-31T20:23:31.409Z,46.4
2018-05-31T20:28:29.169Z,46.7
2018-05-31T20:33:27.002Z,46.7
2018-05-31T20:38:25.064Z,46.8
2018-05-31T20:43:22.539Z,46.5
2018-05-31T20:48:20.564Z,46.4
2018-05-31T20:53:18.216Z,46.4
2018-05-31T20:58:16.098Z,46.4
2018-05-31T21:03:13.797Z,46.3
2018-05-31T21:08:11.315Z,46.4
2018-05-31T21:13:09.099Z,46.4
2018-05-31T21:18:07.000Z,46.5
2018-05-31T21:23:04.865Z,46.4
2018-05-31T21:28:02.038Z,46.3
2018-05-31T21:32:59.824Z,46.3
2018-05-31T21:37:57.635Z,46.3
2018-05-31T21:42:55.425Z,46.2
2018-05-31T21:47:52.984Z,46.2
2018-05-31T21:52:50.844Z,46.4
2018-05-31T21:57:48.478Z,46.4
2018-05-31T22:02:46.420Z,46.3
2018-05-31T22:07:44.073Z,46.2
2018-05-31T22:12:41.746Z,46.2
2018-05-31T22:17:39.578Z,46.2
2018-05-31T22:22:37.170Z,46.2
2018-05-31T22:27:34.771Z,46.2
2018-05-31T22:32:32.532Z,46.1
2018-05-31T22:37:30.227Z,46.2
2018-05-31T22:42:27.899Z,46.2
2018-05-31T22:47:25.641Z,46.1
2018-05-31T22:52:23.480Z,46
2018-05-31T22:57:21.236Z,46
2018-05-31T23:02:18.874Z,46
2018-05-31T23:07:16.461Z,46
2018-05-31T23:12:14.352Z,46
2018-05-31T23:17:12.148Z,46
2018-05-31T23:22:09.805Z,45.9
2018-05-31T23:27:07.625Z,46
2018-05-31T23:32:05.399Z,46
2018-05-31T23:37:02.883Z,45.9
2018-05-31T23:42:00.481Z,45.9
2018-05-31T23:46:58.213Z,45.8
2018-05-31T23:51:55.971Z,45.9
2018-05-31T23:56:53.638Z,45.9
